createdAt,value
2023-05-05T04:15:20.470Z,12.30
2023-05-05T04:16:20.521Z,10.70
2023-05-05T04:17:20.445Z,12.90
2023-05-05T04:18:20.452Z,10.80
2023-05-05T04:19:20.508Z,12.80
2023-05-05T04:20:20.398Z,10.30
2023-05-05T04:21:20.410Z,11.80
2023-05-05T04:22:20.370Z,12.80
2023-05-05T04:23:20.366Z,12.20
2023-05-05T04:24:20.345Z,13.30
2023-05-05T04:25:20.348Z,11.80
2023-05-05T04:26:20.336Z,12.10
2023-05-05T04:27:20.307Z,12.50
2023-05-05T04:28:21.636Z,11.70
2023-05-05T04:29:20.284Z,15.30
2023-05-05T04:30:20.276Z,12.80
2023-05-05T04:31:20.379Z,12.30
2023-05-05T04:32:20.294Z,12.00
2023-05-05T04:33:20.235Z,12.40
2023-05-05T04:34:20.226Z,10.80
2023-05-05T04:35:20.202Z,12.00
2023-05-05T04:36:20.218Z,13.30
2023-05-05T04:37:20.192Z,17.90
2023-05-05T04:38:20.192Z,12.80
2023-05-05T04:39:20.160Z,12.70
2023-05-05T04:40:20.135Z,14.30
2023-05-05T04:41:20.141Z,13.50
2023-05-05T04:42:20.105Z,16.20
2023-05-05T04:43:20.115Z,12.00
2023-05-05T04:44:20.077Z,14.50
2023-05-05T04:45:20.088Z,13.30
2023-05-05T04:46:20.124Z,16.50
2023-05-05T04:47:20.074Z,17.20
2023-05-05T04:48:20.039Z,14.10
2023-05-05T04:49:20.026Z,13.90
2023-05-05T04:50:19.999Z,14.70
2023-05-05T04:51:20.010Z,17.10
2023-05-05T04:52:19.973Z,16.30
2023-05-05T04:53:19.973Z,16.90
2023-05-05T04:54:19.952Z,14.70
2023-05-05T04:55:19.947Z,14.80
2023-05-05T04:56:19.937Z,17.20
2023-05-05T04:57:19.910Z,15.80
2023-05-05T04:58:19.904Z,17.10
2023-05-05T04:59:19.885Z,13.10
2023-05-05T05:00:19.866Z,14.30
2023-05-05T05:01:19.986Z,15.30
2023-05-05T05:02:19.940Z,15.20
2023-05-05T05:03:19.964Z,13.80
2023-05-05T05:04:19.826Z,12.70
2023-05-05T05:05:19.815Z,15.70
2023-05-05T05:06:19.872Z,13.80
2023-05-05T05:07:19.783Z,16.90
2023-05-05T05:08:19.765Z,15.70
2023-05-05T05:09:19.750Z,15.80
2023-05-05T05:10:19.750Z,14.60
2023-05-05T05:11:19.748Z,16.80
2023-05-05T05:12:19.703Z,16.40
2023-05-05T05:13:19.772Z,16.00
2023-05-05T05:14:19.679Z,18.10
2023-05-05T05:15:19.668Z,14.90
2023-05-05T05:16:19.707Z,14.90
2023-05-05T05:17:19.654Z,17.90
2023-05-05T05:18:19.622Z,15.10
2023-05-05T05:19:19.627Z,13.50
2023-05-05T05:20:19.608Z,17.70
2023-05-05T05:21:19.612Z,15.20
2023-05-05T05:22:19.581Z,18.00
2023-05-05T05:23:19.564Z,17.70
2023-05-05T05:24:19.548Z,13.70
2023-05-05T05:25:19.576Z,17.00
2023-05-05T05:26:19.544Z,16.00
2023-05-05T05:27:19.518Z,18.90
2023-05-05T05:28:19.505Z,18.00
2023-05-05T05:29:19.491Z,15.00
2023-05-05T05:30:19.458Z,17.10
2023-05-05T05:31:19.485Z,18.50
2023-05-05T05:32:19.465Z,17.90
2023-05-05T05:33:19.444Z,17.00
2023-05-05T05:34:19.414Z,20.70
2023-05-05T05:35:19.410Z,18.00
2023-05-05T05:36:19.422Z,16.60
2023-05-05T05:37:19.413Z,17.40
2023-05-05T05:38:19.367Z,20.30
2023-05-05T05:39:19.347Z,18.70
2023-05-05T05:40:19.341Z,18.50
2023-05-05T05:41:19.341Z,17.90
2023-05-05T05:42:19.318Z,18.30
2023-05-05T05:43:19.295Z,22.10
2023-05-05T05:44:19.281Z,20.70
2023-05-05T05:45:19.283Z,19.50
2023-05-05T05:46:19.339Z,18.60
2023-05-05T05:47:19.262Z,17.70
2023-05-05T05:48:19.234Z,18.10
2023-05-05T05:49:19.234Z,21.70
2023-05-05T05:50:19.212Z,21.10
2023-05-05T05:51:19.214Z,18.60
2023-05-05T05:52:19.171Z,19.10
2023-05-05T05:53:19.159Z,22.10
2023-05-05T05:54:19.139Z,24.10
2023-05-05T05:55:19.163Z,19.70
2023-05-05T05:56:19.127Z,24.20
2023-05-05T05:57:19.113Z,26.40
2023-05-05T05:58:19.101Z,19.50
2023-05-05T05:59:19.170Z,21.40
2023-05-05T06:00:19.057Z,21.70
2023-05-05T06:01:19.084Z,21.90
2023-05-05T06:02:19.106Z,26.10
2023-05-05T06:03:19.242Z,27.60
2023-05-05T06:04:19.033Z,22.70
2023-05-05T06:05:19.005Z,23.70
2023-05-05T06:06:18.997Z,22.40
2023-05-05T06:07:18.973Z,21.70
2023-05-05T06:08:18.961Z,21.60
2023-05-05T06:09:18.942Z,26.50
2023-05-05T06:10:26.717Z,23.10
2023-05-05T06:11:19.970Z,20.80
2023-05-05T06:12:18.912Z,23.70
2023-05-05T06:13:18.899Z,22.70
2023-05-05T06:14:20.035Z,22.60
2023-05-05T06:15:18.878Z,22.00
2023-05-05T06:16:18.941Z,20.80
2023-05-05T06:17:18.843Z,25.60
2023-05-05T06:18:18.855Z,23.60
2023-05-05T06:19:18.824Z,22.70
2023-05-05T06:20:18.801Z,23.50
2023-05-05T06:21:18.805Z,23.70
2023-05-05T06:22:18.782Z,20.70
2023-05-05T06:23:18.775Z,21.30
2023-05-05T06:24:18.739Z,24.50
2023-05-05T06:25:18.735Z,23.10
2023-05-05T06:26:18.754Z,21.90
2023-05-05T06:27:18.705Z,23.30
2023-05-05T06:28:18.697Z,24.50
2023-05-05T06:29:18.692Z,22.90
2023-05-05T06:30:18.673Z,22.50
2023-05-05T06:31:18.698Z,23.30
2023-05-05T06:32:18.653Z,24.10
2023-05-05T06:33:18.626Z,23.70
2023-05-05T06:34:18.615Z,24.50
2023-05-05T06:35:18.597Z,24.90
2023-05-05T06:36:18.656Z,25.00
2023-05-05T06:37:18.586Z,20.20
2023-05-05T06:38:18.573Z,24.50
2023-05-05T06:39:18.556Z,22.00
2023-05-05T06:40:18.540Z,23.90
2023-05-05T06:41:18.536Z,24.00
2023-05-05T06:42:18.504Z,23.50
2023-05-05T06:43:18.496Z,21.10
2023-05-05T06:44:18.522Z,24.10
2023-05-05T06:45:18.476Z,24.90
2023-05-05T06:46:18.588Z,22.40
2023-05-05T06:47:18.463Z,24.30
2023-05-05T06:48:18.417Z,24.10
2023-05-05T06:49:18.417Z,23.60
2023-05-05T06:50:18.406Z,19.80
2023-05-05T06:51:18.406Z,21.50
2023-05-05T06:52:18.397Z,23.40
2023-05-05T06:53:18.361Z,19.70
2023-05-05T06:54:18.347Z,18.70
2023-05-05T06:55:18.338Z,19.90
2023-05-05T06:56:18.342Z,16.00
2023-05-05T06:57:18.318Z,17.20
2023-05-05T06:58:18.296Z,19.00
2023-05-05T06:59:18.280Z,16.00
2023-05-05T07:00:18.266Z,17.20
2023-05-05T07:01:18.310Z,18.00
2023-05-05T07:02:18.247Z,15.70
2023-05-05T07:03:18.347Z,13.50
2023-05-05T07:04:18.260Z,13.90
2023-05-05T07:05:18.206Z,14.60
2023-05-05T07:06:18.218Z,16.70
2023-05-05T07:07:18.181Z,14.20
2023-05-05T07:08:18.175Z,14.80
2023-05-05T07:09:18.161Z,13.30
2023-05-05T07:10:18.134Z,13.20
2023-05-05T07:11:19.883Z,15.30
2023-05-05T07:12:18.118Z,15.10
2023-05-05T07:13:18.160Z,15.70
2023-05-05T07:14:18.097Z,15.40
2023-05-05T07:15:27.384Z,13.00
2023-05-05T07:16:19.115Z,14.80
2023-05-05T07:17:18.064Z,12.20
2023-05-05T07:18:18.029Z,13.60
2023-05-05T07:19:18.048Z,13.80
2023-05-05T07:20:18.009Z,13.20
2023-05-05T07:21:18.017Z,12.80
2023-05-05T07:22:18.025Z,12.60
2023-05-05T07:23:17.978Z,14.70
2023-05-05T07:24:17.960Z,12.70
2023-05-05T07:25:17.954Z,12.90
2023-05-05T07:26:17.957Z,23.00
2023-05-05T07:27:24.982Z,12.20
2023-05-05T07:28:17.937Z,12.30
2023-05-05T07:29:17.891Z,11.40
2023-05-05T07:30:19.073Z,13.00
2023-05-05T07:31:17.881Z,11.70
2023-05-05T07:32:17.884Z,12.20
2023-05-05T07:33:17.843Z,11.50
2023-05-05T07:34:17.835Z,11.40
2023-05-05T07:35:17.817Z,12.60
2023-05-05T07:36:17.805Z,11.40
2023-05-05T07:37:17.783Z,12.40
2023-05-05T07:38:17.761Z,11.90
2023-05-05T07:39:17.771Z,13.80
2023-05-05T07:40:17.752Z,13.60
2023-05-05T07:41:17.737Z,12.70
2023-05-05T07:42:17.732Z,13.80
2023-05-05T07:43:17.698Z,15.40
2023-05-05T07:44:17.857Z,14.40
2023-05-05T07:45:17.703Z,11.70
2023-05-05T07:46:17.693Z,13.50
2023-05-05T07:47:17.657Z,12.30
2023-05-05T07:48:17.629Z,13.40
2023-05-05T07:49:17.616Z,18.20
2023-05-05T07:50:17.626Z,12.50
2023-05-05T07:51:17.607Z,12.60
2023-05-05T07:52:17.577Z,14.20
2023-05-05T07:53:17.572Z,12.30
2023-05-05T07:54:17.555Z,10.50
2023-05-05T07:55:17.568Z,12.60
2023-05-05T07:56:17.923Z,13.30
2023-05-05T07:57:17.514Z,16.80
2023-05-05T07:58:17.499Z,12.70
2023-05-05T07:59:17.493Z,12.70
2023-05-05T08:00:17.488Z,13.20
2023-05-05T08:01:17.467Z,11.80
2023-05-05T08:02:17.466Z,12.50
2023-05-05T08:03:17.454Z,14.10
2023-05-05T08:04:17.481Z,10.50
2023-05-05T08:05:17.432Z,14.20
2023-05-05T08:06:17.391Z,13.90
2023-05-05T08:07:17.380Z,12.90
2023-05-05T08:08:17.364Z,10.90
2023-05-05T08:09:17.359Z,11.90
2023-05-05T08:10:17.353Z,12.40
2023-05-05T08:11:17.337Z,13.10
2023-05-05T08:12:17.315Z,15.50
2023-05-05T08:13:17.319Z,12.10
2023-05-05T08:14:17.287Z,12.70
2023-05-05T08:15:17.286Z,12.00
2023-05-05T08:16:17.308Z,10.90
2023-05-05T08:17:17.263Z,13.00
2023-05-05T08:18:17.234Z,13.40
2023-05-05T08:19:28.147Z,10.30
2023-05-05T08:20:18.230Z,13.30
2023-05-05T08:21:17.200Z,11.30
2023-05-05T08:22:17.182Z,9.90
2023-05-05T08:23:17.177Z,10.40
2023-05-05T08:24:17.155Z,12.10
2023-05-05T08:25:17.168Z,9.10
2023-05-05T08:26:17.131Z,9.70
2023-05-05T08:27:17.133Z,14.00
2023-05-05T08:28:17.097Z,11.10
2023-05-05T08:29:17.090Z,13.10
2023-05-05T08:30:17.119Z,12.40
2023-05-05T08:31:17.103Z,9.60
2023-05-05T08:32:17.052Z,12.20
2023-05-05T08:33:17.085Z,10.30
2023-05-05T08:34:17.023Z,8.90
2023-05-05T08:35:17.067Z,11.70
2023-05-05T08:36:17.023Z,11.50
2023-05-05T08:37:16.992Z,11.40
2023-05-05T08:38:16.967Z,13.90
2023-05-05T08:39:16.961Z,10.50
2023-05-05T08:40:16.960Z,10.80
2023-05-05T08:41:16.953Z,9.30
2023-05-05T08:42:29.032Z,10.50
2023-05-05T08:43:17.911Z,10.90
2023-05-05T08:44:16.896Z,8.60
2023-05-05T08:45:16.909Z,8.30
2023-05-05T08:46:16.898Z,11.90
2023-05-05T08:47:16.854Z,9.50
2023-05-05T08:48:16.848Z,10.40
2023-05-05T08:49:16.833Z,9.50
2023-05-05T08:50:16.808Z,9.20
2023-05-05T08:51:16.815Z,10.60
2023-05-05T08:52:16.788Z,9.30
2023-05-05T08:53:16.774Z,10.50
2023-05-05T08:54:16.756Z,11.60
2023-05-05T08:55:16.765Z,12.70
2023-05-05T08:56:16.767Z,10.90
2023-05-05T08:57:16.725Z,11.40
2023-05-05T08:58:16.704Z,12.00
2023-05-05T08:59:16.694Z,11.30
2023-05-05T09:00:16.678Z,13.70
2023-05-05T09:01:16.691Z,12.60
2023-05-05T09:02:16.697Z,11.40
2023-05-05T09:03:16.754Z,13.50
2023-05-05T09:04:16.638Z,11.50
2023-05-05T09:05:16.649Z,10.60
2023-05-05T09:06:16.602Z,12.60
2023-05-05T09:07:16.596Z,11.60
2023-05-05T09:08:16.588Z,13.10
2023-05-05T09:09:16.560Z,11.10
2023-05-05T09:10:16.564Z,10.00
2023-05-05T09:11:16.556Z,13.10
2023-05-05T09:12:16.539Z,12.80
2023-05-05T09:13:16.662Z,11.40
2023-05-05T09:14:16.491Z,11.50
2023-05-05T09:15:16.552Z,11.50
2023-05-05T09:16:16.548Z,10.10
2023-05-05T09:17:16.459Z,10.80
2023-05-05T09:18:16.439Z,12.50
2023-05-05T09:19:16.447Z,12.20
2023-05-05T09:20:16.452Z,12.40
2023-05-05T09:21:16.409Z,11.20
2023-05-05T09:22:16.415Z,13.60
2023-05-05T09:23:16.381Z,10.30
2023-05-05T09:24:16.383Z,12.60
2023-05-05T09:25:16.441Z,11.30
2023-05-05T09:26:16.339Z,12.00
2023-05-05T09:27:16.326Z,11.30
2023-05-05T09:28:16.317Z,11.80
2023-05-05T09:29:16.319Z,9.00
2023-05-05T09:30:16.312Z,11.90
2023-05-05T09:31:16.592Z,12.00
2023-05-05T09:32:16.262Z,12.30
2023-05-05T09:33:16.286Z,11.50
2023-05-05T09:34:16.243Z,12.10
2023-05-05T09:35:16.227Z,11.00
2023-05-05T09:36:16.207Z,12.10
2023-05-05T09:37:16.203Z,11.90
2023-05-05T09:38:16.175Z,12.30
2023-05-05T09:39:16.184Z,11.20
2023-05-05T09:40:16.150Z,10.10
2023-05-05T09:41:16.150Z,12.00
2023-05-05T09:42:16.126Z,12.40
2023-05-05T09:43:16.134Z,12.80
2023-05-05T09:44:16.115Z,9.80
2023-05-05T09:45:16.100Z,12.10
2023-05-05T09:46:16.150Z,10.30
2023-05-05T09:47:28.554Z,12.40
2023-05-05T09:48:17.070Z,11.10
2023-05-05T09:49:16.045Z,11.30
2023-05-05T09:50:16.136Z,9.00
2023-05-05T09:51:16.019Z,8.70
2023-05-05T09:52:16.007Z,11.90
2023-05-05T09:53:15.999Z,9.60
2023-05-05T09:54:15.967Z,11.00
2023-05-05T09:55:15.961Z,10.90
2023-05-05T09:56:15.941Z,9.40
2023-05-05T09:57:15.953Z,11.90
2023-05-05T09:58:15.956Z,7.90
2023-05-05T09:59:15.918Z,9.20
2023-05-05T10:00:15.887Z,8.10
2023-05-05T10:01:15.906Z,9.70
2023-05-05T10:02:15.875Z,11.20
2023-05-05T10:03:15.874Z,8.20
2023-05-05T10:04:15.830Z,12.30
2023-05-05T10:05:15.866Z,11.70
2023-05-05T10:06:16.074Z,11.50
2023-05-05T10:07:15.814Z,11.20
2023-05-05T10:08:15.788Z,10.00
2023-05-05T10:09:15.769Z,10.80
2023-05-05T10:10:15.754Z,9.20
2023-05-05T10:11:15.790Z,9.50
2023-05-05T10:12:15.968Z,9.20
2023-05-05T10:13:15.837Z,11.00
2023-05-05T10:14:15.713Z,10.60
2023-05-05T10:15:15.713Z,8.50
2023-05-05T10:16:15.742Z,9.80
2023-05-05T10:17:15.662Z,10.70
2023-05-05T10:18:15.666Z,8.60
2023-05-05T10:19:15.631Z,10.00
2023-05-05T10:20:15.629Z,11.80
2023-05-05T10:21:15.635Z,11.20
2023-05-05T10:22:15.594Z,9.20
2023-05-05T10:23:15.580Z,12.40
2023-05-05T10:24:15.569Z,13.50
2023-05-05T10:25:15.578Z,12.00
2023-05-05T10:26:15.579Z,11.00
2023-05-05T10:27:15.542Z,10.90
2023-05-05T10:28:15.522Z,12.20
2023-05-05T10:29:15.513Z,8.80
2023-05-05T10:30:15.528Z,7.30
2023-05-05T10:31:24.984Z,9.30
2023-05-05T10:32:33.465Z,7.80
2023-05-05T10:33:31.015Z,8.40
2023-05-05T10:34:16.516Z,8.90
2023-05-05T10:35:15.454Z,10.40
2023-05-05T10:36:15.422Z,10.50
2023-05-05T10:37:15.404Z,8.60
2023-05-05T10:38:15.398Z,8.90
2023-05-05T10:39:15.394Z,9.70
2023-05-05T10:40:15.384Z,8.80
2023-05-05T10:41:15.354Z,9.90
2023-05-05T10:42:15.339Z,7.50
2023-05-05T10:43:15.330Z,10.60
2023-05-05T10:44:15.335Z,8.30
2023-05-05T10:45:15.372Z,10.90
2023-05-05T10:46:15.323Z,8.20
2023-05-05T10:47:15.267Z,7.90
2023-05-05T10:48:15.371Z,9.10
2023-05-05T10:49:15.271Z,8.20
2023-05-05T10:50:15.237Z,8.40
2023-05-05T10:51:23.968Z,5.10
2023-05-05T10:52:16.213Z,6.00
2023-05-05T10:53:15.192Z,5.80
2023-05-05T10:54:15.292Z,9.60
2023-05-05T10:55:15.183Z,8.40
2023-05-05T10:56:15.147Z,6.30
2023-05-05T10:57:15.148Z,7.00
2023-05-05T10:58:15.149Z,7.40
2023-05-05T10:59:15.140Z,6.80
2023-05-05T11:00:15.161Z,6.50
2023-05-05T11:01:15.124Z,8.20
2023-05-05T11:02:15.078Z,8.80
2023-05-05T11:03:15.188Z,6.30
2023-05-05T11:04:15.057Z,8.00
2023-05-05T11:05:15.153Z,6.80
2023-05-05T11:06:15.045Z,6.30
2023-05-05T11:07:15.115Z,5.40
2023-05-05T11:08:15.018Z,6.10
2023-05-05T11:09:14.987Z,7.90
2023-05-05T11:10:15.177Z,7.20
2023-05-05T11:11:14.957Z,6.20
2023-05-05T11:12:14.958Z,4.80
2023-05-05T11:13:15.017Z,7.00
2023-05-05T11:14:14.924Z,5.30
2023-05-05T11:15:14.907Z,7.30
2023-05-05T11:16:14.894Z,6.50
2023-05-05T11:17:14.898Z,6.50
2023-05-05T11:18:14.915Z,5.40
2023-05-05T11:19:14.863Z,4.50
2023-05-05T11:20:14.839Z,7.20
2023-05-05T11:21:14.838Z,6.20
2023-05-05T11:22:14.824Z,6.20
2023-05-05T11:23:16.638Z,4.20
2023-05-05T11:24:14.786Z,6.80
2023-05-05T11:25:14.771Z,6.40
2023-05-05T11:26:14.773Z,5.70
2023-05-05T11:27:14.761Z,4.00
2023-05-05T11:28:14.733Z,8.70
2023-05-05T11:29:14.740Z,5.80
2023-05-05T11:30:14.755Z,5.60
2023-05-05T11:31:14.778Z,4.30
2023-05-05T11:32:14.680Z,5.20
2023-05-05T11:33:14.668Z,5.70
2023-05-05T11:34:14.660Z,6.40
2023-05-05T11:35:14.642Z,5.50
2023-05-05T11:36:14.642Z,4.90
2023-05-05T11:37:14.620Z,6.50
2023-05-05T11:38:14.607Z,4.90
2023-05-05T11:39:14.590Z,4.90
2023-05-05T11:40:14.594Z,4.40
2023-05-05T11:41:14.577Z,4.70
2023-05-05T11:42:14.543Z,6.80
2023-05-05T11:43:14.597Z,4.70
2023-05-05T11:44:14.519Z,3.40
2023-05-05T11:45:14.542Z,3.20
2023-05-05T11:46:14.576Z,4.60
2023-05-05T11:47:14.483Z,8.30
2023-05-05T11:48:14.524Z,6.50
2023-05-05T11:49:14.462Z,4.70
2023-05-05T11:50:14.470Z,4.70
2023-05-05T11:51:14.428Z,5.10
2023-05-05T11:52:14.426Z,5.50
2023-05-05T11:53:14.397Z,5.90
2023-05-05T11:54:14.386Z,4.70
2023-05-05T11:55:14.393Z,5.30
2023-05-05T11:56:14.358Z,5.60
2023-05-05T11:57:14.379Z,6.00
2023-05-05T11:58:14.336Z,3.30
2023-05-05T11:59:14.356Z,4.50
2023-05-05T12:00:14.319Z,5.40
2023-05-05T12:01:14.313Z,2.80
2023-05-05T12:02:14.300Z,4.40
2023-05-05T12:03:14.315Z,6.20
2023-05-05T12:04:14.420Z,4.50
2023-05-05T12:05:14.245Z,3.80
2023-05-05T12:06:14.223Z,3.80
2023-05-05T12:07:14.222Z,3.80
2023-05-05T12:08:14.201Z,4.70
2023-05-05T12:09:14.208Z,5.00
2023-05-05T12:10:14.173Z,4.10
2023-05-05T12:11:14.171Z,4.20
2023-05-05T12:12:14.158Z,4.00
2023-05-05T12:13:14.190Z,4.50
2023-05-05T12:14:14.141Z,4.40
2023-05-05T12:15:14.117Z,5.60
2023-05-05T12:16:14.117Z,2.80
2023-05-05T12:17:14.096Z,3.20
2023-05-05T12:18:14.080Z,3.10
2023-05-05T12:19:14.060Z,4.30
2023-05-05T12:20:14.125Z,4.00
2023-05-05T12:21:14.037Z,4.30
2023-05-05T12:22:14.019Z,3.10
2023-05-05T12:23:14.027Z,4.70
2023-05-05T12:24:13.994Z,5.10
2023-05-05T12:25:14.004Z,10.10
2023-05-05T12:26:13.972Z,4.00
2023-05-05T12:27:13.994Z,3.70
2023-05-05T12:28:13.962Z,5.80
2023-05-05T12:29:13.941Z,3.40
2023-05-05T12:30:13.937Z,3.70
2023-05-05T12:31:13.993Z,5.00
2023-05-05T12:32:14.136Z,3.50
2023-05-05T12:33:13.914Z,3.50
2023-05-05T12:34:13.874Z,5.50
2023-05-05T12:35:13.858Z,3.80
2023-05-05T12:36:13.960Z,4.30
2023-05-05T12:37:13.843Z,2.70
2023-05-05T12:38:13.817Z,5.10
2023-05-05T12:39:13.829Z,4.30
2023-05-05T12:40:13.788Z,4.80
2023-05-05T12:41:13.789Z,4.50
2023-05-05T12:42:13.773Z,2.60
2023-05-05T12:43:13.748Z,3.40
2023-05-05T12:44:13.730Z,4.10
2023-05-05T12:45:13.718Z,4.10
2023-05-05T12:46:13.805Z,5.60
2023-05-05T12:47:13.698Z,4.70
2023-05-05T12:48:13.674Z,5.10
2023-05-05T12:49:13.669Z,4.00
2023-05-05T12:50:13.667Z,5.20
2023-05-05T12:51:13.660Z,5.20
2023-05-05T12:52:13.641Z,2.90
2023-05-05T12:53:13.624Z,4.00
2023-05-05T12:54:13.600Z,6.60
2023-05-05T12:55:13.612Z,4.40
2023-05-05T12:56:13.589Z,4.70
2023-05-05T12:57:13.566Z,5.30
2023-05-05T12:58:13.561Z,2.90
2023-05-05T12:59:13.546Z,3.20
2023-05-05T13:00:13.550Z,6.00
2023-05-05T13:01:13.533Z,2.10
2023-05-05T13:02:13.500Z,2.80
2023-05-05T13:03:13.572Z,3.50
2023-05-05T13:04:13.465Z,3.20
2023-05-05T13:05:13.466Z,4.40
2023-05-05T13:06:13.437Z,3.60
2023-05-05T13:07:13.443Z,2.90
2023-05-05T13:08:13.449Z,6.60
2023-05-05T13:09:13.417Z,3.30
2023-05-05T13:10:13.398Z,1.60
2023-05-05T13:11:13.376Z,5.00
2023-05-05T13:12:13.356Z,4.50
2023-05-05T13:13:13.479Z,7.70
2023-05-05T13:14:13.346Z,4.20
2023-05-05T13:15:13.317Z,7.10
2023-05-05T13:16:13.347Z,4.80
2023-05-05T13:17:13.307Z,4.00
2023-05-05T13:18:13.340Z,4.00
2023-05-05T13:19:13.294Z,7.90
2023-05-05T13:20:13.256Z,6.80
2023-05-05T13:21:13.243Z,6.70
2023-05-05T13:22:13.262Z,6.70
2023-05-05T13:23:13.255Z,3.20
2023-05-05T13:24:25.890Z,3.10
2023-05-05T13:25:14.196Z,4.90
2023-05-05T13:26:13.177Z,5.60
2023-05-05T13:27:13.166Z,3.00
2023-05-05T13:28:20.228Z,4.80
2023-05-05T13:29:13.134Z,6.60
2023-05-05T13:30:13.128Z,7.30
2023-05-05T13:31:13.159Z,9.30
2023-05-05T13:32:13.108Z,4.50
2023-05-05T13:33:13.112Z,4.40
2023-05-05T13:34:13.104Z,4.00
2023-05-05T13:35:15.992Z,8.70
2023-05-05T13:36:13.047Z,4.30
2023-05-05T13:37:13.050Z,6.70
2023-05-05T13:38:13.046Z,5.20
2023-05-05T13:39:13.000Z,5.90
2023-05-05T13:40:12.997Z,6.20
2023-05-05T13:41:12.984Z,4.80
2023-05-05T13:42:13.000Z,7.80
2023-05-05T13:43:12.965Z,6.00
2023-05-05T13:44:12.951Z,6.60
2023-05-05T13:45:12.933Z,6.50
2023-05-05T13:46:19.665Z,9.40
2023-05-05T13:47:14.139Z,6.70
2023-05-05T13:48:12.892Z,7.60
2023-05-05T13:49:12.867Z,9.20
2023-05-05T13:50:12.880Z,8.70
2023-05-05T13:51:12.848Z,8.50
2023-05-05T13:52:12.864Z,9.20
2023-05-05T13:53:12.822Z,8.50
2023-05-05T13:54:12.811Z,8.30
2023-05-05T13:55:12.795Z,8.60
2023-05-05T13:56:12.805Z,9.70
2023-05-05T13:57:12.788Z,10.90
2023-05-05T13:58:12.762Z,7.80
2023-05-05T13:59:12.745Z,9.70
2023-05-05T14:00:12.735Z,8.90
2023-05-05T14:01:12.790Z,9.00
2023-05-05T14:02:12.704Z,9.50
2023-05-05T14:03:12.682Z,8.90
2023-05-05T14:04:12.795Z,9.00
2023-05-05T14:05:12.676Z,7.00
2023-05-05T14:06:12.674Z,9.20
2023-05-05T14:07:12.641Z,7.90
2023-05-05T14:08:12.622Z,8.80
2023-05-05T14:09:12.630Z,7.50
2023-05-05T14:10:12.610Z,9.70
2023-05-05T14:11:12.586Z,9.90
2023-05-05T14:12:12.581Z,8.00
2023-05-05T14:13:12.680Z,8.10
2023-05-05T14:14:12.561Z,9.30
2023-05-05T14:15:12.519Z,10.20
2023-05-05T14:16:12.547Z,9.60
2023-05-05T14:17:12.503Z,10.10
2023-05-05T14:18:12.487Z,9.40
2023-05-05T14:19:12.493Z,9.70
2023-05-05T14:20:12.470Z,10.60
2023-05-05T14:21:12.441Z,8.40
2023-05-05T14:22:12.437Z,9.80
2023-05-05T14:23:12.429Z,10.80
2023-05-05T14:24:12.421Z,6.90
2023-05-05T14:25:12.400Z,8.40
2023-05-05T14:26:12.378Z,9.10
2023-05-05T14:27:12.374Z,9.80
2023-05-05T14:28:12.387Z,10.60
2023-05-05T14:29:12.349Z,8.20
2023-05-05T14:30:12.347Z,8.50
2023-05-05T14:31:12.340Z,9.30
2023-05-05T14:32:12.396Z,7.60
2023-05-05T14:33:12.310Z,8.10
2023-05-05T14:34:12.279Z,9.10
2023-05-05T14:35:12.299Z,8.00
2023-05-05T14:36:12.250Z,6.90
2023-05-05T14:37:12.250Z,8.90
2023-05-05T14:38:12.306Z,6.60
2023-05-05T14:39:12.255Z,9.00
2023-05-05T14:40:12.202Z,8.10
2023-05-05T14:41:12.190Z,7.20
2023-05-05T14:42:12.207Z,6.30
2023-05-05T14:43:12.161Z,6.00
2023-05-05T14:44:12.145Z,5.70
2023-05-05T14:45:12.159Z,5.90
2023-05-05T14:46:12.152Z,6.10
2023-05-05T14:47:12.106Z,3.90
2023-05-05T14:48:12.092Z,5.30
2023-05-05T14:49:12.071Z,4.20
2023-05-05T14:50:12.079Z,5.10
2023-05-05T14:51:12.070Z,6.90
2023-05-05T14:52:12.145Z,4.90
2023-05-05T14:53:12.018Z,5.80
2023-05-05T14:54:24.214Z,4.10
2023-05-05T14:55:12.992Z,4.20
2023-05-05T14:56:11.990Z,4.60
2023-05-05T14:57:11.965Z,4.90
2023-05-05T14:58:11.962Z,5.70
2023-05-05T14:59:11.932Z,4.20
2023-05-05T15:00:11.963Z,3.10
2023-05-05T15:01:11.979Z,4.90
2023-05-05T15:02:11.905Z,3.30
2023-05-05T15:03:11.955Z,2.60
2023-05-05T15:04:11.880Z,3.20
2023-05-05T15:05:12.009Z,2.50
2023-05-05T15:06:11.871Z,2.70
2023-05-05T15:07:11.826Z,4.00
2023-05-05T15:08:11.834Z,2.30
2023-05-05T15:09:11.808Z,4.10
2023-05-05T15:10:11.840Z,1.50
2023-05-05T15:11:11.805Z,3.10
2023-05-05T15:12:11.772Z,3.10
2023-05-05T15:13:11.795Z,2.80
2023-05-05T15:14:11.759Z,3.40
2023-05-05T15:15:11.834Z,3.20
2023-05-05T15:16:11.733Z,2.20
2023-05-05T15:17:11.723Z,3.10
2023-05-05T15:18:11.705Z,2.80
2023-05-05T15:19:11.697Z,2.70
2023-05-05T15:20:11.676Z,4.10
2023-05-05T15:21:11.654Z,3.60
2023-05-05T15:22:11.639Z,3.40
2023-05-05T15:23:11.629Z,3.70
2023-05-05T15:24:11.620Z,2.30
2023-05-05T15:25:11.598Z,2.50
2023-05-05T15:26:11.589Z,2.90
2023-05-05T15:27:11.567Z,3.40
2023-05-05T15:28:11.556Z,2.90
2023-05-05T15:29:11.555Z,4.60
2023-05-05T15:30:11.547Z,2.30
2023-05-05T15:31:11.547Z,2.80
2023-05-05T15:32:11.500Z,6.10
2023-05-05T15:33:11.490Z,4.40
2023-05-05T15:34:11.482Z,2.90
2023-05-05T15:35:11.481Z,2.80
2023-05-05T15:36:11.451Z,5.20
2023-05-05T15:37:11.445Z,2.40
2023-05-05T15:38:11.445Z,3.60
2023-05-05T15:39:11.418Z,2.30
2023-05-05T15:40:11.393Z,2.80
2023-05-05T15:41:11.399Z,2.90
2023-05-05T15:42:11.369Z,2.60
2023-05-05T15:43:11.365Z,2.30
2023-05-05T15:44:11.345Z,4.20
2023-05-05T15:45:11.331Z,3.40
2023-05-05T15:46:11.305Z,3.10
2023-05-05T15:47:11.353Z,4.10
2023-05-05T15:48:11.449Z,6.70
2023-05-05T15:49:11.292Z,3.30
2023-05-05T15:50:11.264Z,4.80
2023-05-05T15:51:11.256Z,6.00
2023-05-05T15:52:11.249Z,6.90
2023-05-05T15:53:11.239Z,6.70
2023-05-05T15:54:11.217Z,4.20
2023-05-05T15:55:11.305Z,6.00
2023-05-05T15:56:11.177Z,4.70
2023-05-05T15:57:11.195Z,5.70
2023-05-05T15:58:11.174Z,4.50
2023-05-05T15:59:11.142Z,4.90
2023-05-05T16:00:11.132Z,5.90
2023-05-05T16:01:11.207Z,4.50
2023-05-05T16:02:11.131Z,5.30
2023-05-05T16:03:11.123Z,5.70
2023-05-05T16:04:11.076Z,7.50
2023-05-05T16:05:11.207Z,4.40
2023-05-05T16:06:11.065Z,5.70
2023-05-05T16:07:11.050Z,5.10
2023-05-05T16:08:11.049Z,5.70
2023-05-05T16:09:11.007Z,5.50
2023-05-05T16:10:10.997Z,4.30
2023-05-05T16:11:11.004Z,6.30
2023-05-05T16:12:10.964Z,5.00
2023-05-05T16:13:10.994Z,4.30
2023-05-05T16:14:10.951Z,4.60
2023-05-05T16:15:11.268Z,2.50
2023-05-05T16:16:10.975Z,2.70
2023-05-05T16:17:10.919Z,3.30
2023-05-05T16:18:11.170Z,5.00
2023-05-05T16:19:10.875Z,3.90
2023-05-05T16:20:10.867Z,5.70
2023-05-05T16:21:10.876Z,4.20
2023-05-05T16:22:10.834Z,4.90
2023-05-05T16:23:10.848Z,4.80
2023-05-05T16:24:10.801Z,5.50
2023-05-05T16:25:11.012Z,4.40
2023-05-05T16:26:10.796Z,4.50
2023-05-05T16:27:10.770Z,3.40
2023-05-05T16:28:10.754Z,2.90
2023-05-05T16:29:10.768Z,3.60
2023-05-05T16:30:10.739Z,3.00
2023-05-05T16:31:11.159Z,3.30
2023-05-05T16:32:10.708Z,5.00
2023-05-05T16:33:10.791Z,3.50
2023-05-05T16:34:10.686Z,2.50
2023-05-05T16:35:10.826Z,5.60
2023-05-05T16:36:10.653Z,2.00
2023-05-05T16:37:10.634Z,8.40
2023-05-05T16:38:10.618Z,2.40
2023-05-05T16:39:10.621Z,5.90
2023-05-05T16:40:10.611Z,9.60
2023-05-05T16:41:10.595Z,7.70
2023-05-05T16:42:10.582Z,4.10
2023-05-05T16:43:10.549Z,2.00
2023-05-05T16:44:10.561Z,2.20
2023-05-05T16:45:10.717Z,4.50
2023-05-05T16:46:10.556Z,4.00
2023-05-05T16:47:10.505Z,4.00
2023-05-05T16:48:10.527Z,2.80
2023-05-05T16:49:10.493Z,3.70
2023-05-05T16:50:10.476Z,6.20
2023-05-05T16:51:10.446Z,2.30
2023-05-05T16:52:10.446Z,1.30
2023-05-05T16:53:10.609Z,3.60
2023-05-05T16:54:10.426Z,1.70
2023-05-05T16:55:10.614Z,2.20
2023-05-05T16:56:10.398Z,2.60
2023-05-05T16:57:10.380Z,4.70
2023-05-05T16:58:10.372Z,3.50
2023-05-05T16:59:10.350Z,3.40
2023-05-05T17:00:10.343Z,3.30
2023-05-05T17:01:10.370Z,2.60
2023-05-05T17:02:10.370Z,3.30
2023-05-05T17:03:10.318Z,3.20
2023-05-05T17:04:10.280Z,2.60
2023-05-05T17:05:10.631Z,5.00
2023-05-05T17:06:10.255Z,1.90
2023-05-05T17:07:10.265Z,3.80
2023-05-05T17:08:10.235Z,2.50
2023-05-05T17:09:10.213Z,2.40
2023-05-05T17:10:10.201Z,3.10
2023-05-05T17:11:11.645Z,3.50
2023-05-05T17:12:10.207Z,3.50
2023-05-05T17:13:10.181Z,4.00
2023-05-05T17:14:10.152Z,3.10
2023-05-05T17:15:10.326Z,5.50
2023-05-05T17:16:10.173Z,5.40
2023-05-05T17:17:10.125Z,2.80
2023-05-05T17:18:10.165Z,4.40
2023-05-05T17:19:10.080Z,1.80
2023-05-05T17:20:10.065Z,4.70
2023-05-05T17:21:10.076Z,3.20